地図

経路データ

SID SEASON NUMBER BASIN SUBBASIN NAME ISO_TIME NATURE LAT LON WMO_WIND WMO_PRES WMO_AGENCY TRACK_TYPE DIST2LAND LANDFALL IFLAG USA_AGENCY USA_ATCF_ID USA_LAT USA_LON USA_RECORD USA_STATUS USA_WIND USA_PRES USA_SSHS USA_R34_NE USA_R34_SE USA_R34_SW USA_R34_NW USA_R50_NE USA_R50_SE USA_R50_SW USA_R50_NW USA_R64_NE USA_R64_SE USA_R64_SW USA_R64_NW USA_POCI USA_ROCI USA_RMW USA_EYE TOKYO_LAT TOKYO_LON TOKYO_GRADE TOKYO_WIND TOKYO_PRES TOKYO_R50_DIR TOKYO_R50_LONG TOKYO_R50_SHORT TOKYO_R30_DIR TOKYO_R30_LONG TOKYO_R30_SHORT TOKYO_LAND CMA_LAT CMA_LON CMA_CAT CMA_WIND CMA_PRES HKO_LAT HKO_LON HKO_CAT HKO_WIND HKO_PRES NEWDELHI_LAT NEWDELHI_LON NEWDELHI_GRADE NEWDELHI_WIND NEWDELHI_PRES NEWDELHI_CI NEWDELHI_DP NEWDELHI_POCI REUNION_LAT REUNION_LON REUNION_TYPE REUNION_WIND REUNION_PRES REUNION_TNUM REUNION_CI REUNION_RMW REUNION_R34_NE REUNION_R34_SE REUNION_R34_SW REUNION_R34_NW REUNION_R50_NE REUNION_R50_SE REUNION_R50_SW REUNION_R50_NW REUNION_R64_NE REUNION_R64_SE REUNION_R64_SW REUNION_R64_NW BOM_LAT BOM_LON BOM_TYPE BOM_WIND BOM_PRES BOM_TNUM BOM_CI BOM_RMW BOM_R34_NE BOM_R34_SE BOM_R34_SW BOM_R34_NW BOM_R50_NE BOM_R50_SE BOM_R50_SW BOM_R50_NW BOM_R64_NE BOM_R64_SE BOM_R64_SW BOM_R64_NW BOM_ROCI BOM_POCI BOM_EYE BOM_POS_METHOD BOM_PRES_METHOD NADI_LAT NADI_LON NADI_CAT NADI_WIND NADI_PRES WELLINGTON_LAT WELLINGTON_LON WELLINGTON_WIND WELLINGTON_PRES DS824_LAT DS824_LON DS824_STAGE DS824_WIND DS824_PRES TD9636_LAT TD9636_LON TD9636_STAGE TD9636_WIND TD9636_PRES TD9635_LAT TD9635_LON TD9635_WIND TD9635_PRES TD9635_ROCI NEUMANN_LAT NEUMANN_LON NEUMANN_CLASS NEUMANN_WIND NEUMANN_PRES MLC_LAT MLC_LON MLC_CLASS MLC_WIND MLC_PRES USA_GUST BOM_GUST BOM_GUST_PER REUNION_GUST REUNION_GUST_PER USA_SEAHGT USA_SEARAD_NE USA_SEARAD_SE USA_SEARAD_SW USA_SEARAD_NW STORM_SPEED STORM_DIR
1941212N10151 1941 39 WP MM NOT_NAMED 1941-07-31 09:00:00 NR 9.90000 150.500 main 1387 1377 __________O___ -1 9.90000 150.500 2 8 265
1941212N10151 1941 39 WP MM NOT_NAMED 1941-07-31 12:00:00 NR 9.86288 150.109 main 1377 1357 __________P___ -1 9.86288 150.109 2 8 266
1941212N10151 1941 39 WP MM NOT_NAMED 1941-07-31 15:00:00 NR 9.85041 149.724 main 1368 1362 __________P___ -1 9.85041 149.724 2 7 272
1941212N10151 1941 39 WP MM NOT_NAMED 1941-07-31 18:00:00 NR 9.88774 149.353 main 1362 1357 __________P___ -1 9.88774 149.353 2 7 282
1941212N10151 1941 39 WP MM NOT_NAMED 1941-07-31 21:00:00 NR 10.0000 149.000 main 1367 1365 __________O___ -1 10.0000 149.000 2 7 295
1941212N10151 1941 39 WP MM NOT_NAMED 1941-08-01 00:00:00 NR 10.2014 148.677 main 1385 1384 __________P___ -1 10.2014 148.677 2 7 309
1941212N10151 1941 39 WP MM NOT_NAMED 1941-08-01 03:00:00 NR 10.4623 148.413 main 1416 1416 __________P___ -1 10.4623 148.413 2 7 322
1941212N10151 1941 39 WP MM NOT_NAMED 1941-08-01 06:00:00 NR 10.7420 148.243 main 1436 1436 __________P___ -1 10.7420 148.243 2 6 339
1941212N10151 1941 39 WP MM NOT_NAMED 1941-08-01 09:00:00 NR 11.0000 148.200 main 1470 1470 __________O___ -1 11.0000 148.200 2 5 21
1941212N10151 1941 39 WP MM NOT_NAMED 1941-08-01 12:00:00 NR 11.1668 148.409 main 1494 1494 __________P___ -1 11.1668 148.409 2 6 59
1941212N10151 1941 39 WP MM NOT_NAMED 1941-08-01 15:00:00 NR 11.3079 148.729 main 1508 1508 __________P___ -1 11.3079 148.729 2 7 66
1941212N10151 1941 39 WP MM NOT_NAMED 1941-08-01 18:00:00 NR 11.4449 149.034 main 1522 1522 __________P___ -1 11.4449 149.034 2 5 58
1941212N10151 1941 39 WP MM NOT_NAMED 1941-08-01 21:00:00 NR 11.6000 149.200 main 1547 1547 __________O___ -1 11.6000 149.200 2 4 14
1941212N10151 1941 39 WP MM NOT_NAMED 1941-08-02 00:00:00 NR 11.8149 149.131 main 1568 1568 __________P___ -1 11.8149 149.131 2 5 327
1941212N10151 1941 39 WP MM NOT_NAMED 1941-08-02 03:00:00 NR 12.0488 148.900 main 1588 1588 __________P___ -1 12.0488 148.900 2 8 308
1941212N10151 1941 39 WP MM NOT_NAMED 1941-08-02 06:00:00 NR 12.2834 148.519 main 1617 1617 __________P___ -1 12.2834 148.519 2 10 297
1941212N10151 1941 39 WP MM NOT_NAMED 1941-08-02 09:00:00 NR 12.5000 148.000 main 1637 1636 __________O___ -1 12.5000 148.000 2 12 288
1941212N10151 1941 39 WP MM NOT_NAMED 1941-08-02 12:00:00 NR 12.6611 147.319 main 1658 1658 __________P___ -1 12.6611 147.319 2 15 282
1941212N10151 1941 39 WP MM NOT_NAMED 1941-08-02 15:00:00 NR 12.8026 146.522 main 1669 1669 __________P___ -1 12.8026 146.522 2 16 280
1941212N10151 1941 39 WP MM NOT_NAMED 1941-08-02 18:00:00 NR 12.9424 145.715 main 1683 1683 __________P___ -1 12.9424 145.715 2 15 281
1941212N10151 1941 39 WP MM NOT_NAMED 1941-08-02 21:00:00 NR 13.1000 145.000 main 1712 1712 __________O___ -1 13.1000 145.000 2 12 287
1941212N10151 1941 39 WP MM NOT_NAMED 1941-08-03 00:00:00 NR 13.2982 144.501 main 1740 1740 __________P___ -1 13.2982 144.501 2 10 296
1941212N10151 1941 39 WP MM NOT_NAMED 1941-08-03 03:00:00 NR 13.5186 144.107 main 1769 1769 __________P___ -1 13.5186 144.107 2 8 303
1941212N10151 1941 39 WP MM NOT_NAMED 1941-08-03 06:00:00 NR 13.7548 143.785 main 1807 1807 __________P___ -1 13.7548 143.785 2 8 309
1941212N10151 1941 39 WP MM NOT_NAMED 1941-08-03 09:00:00 NR 14.0000 143.500 main 1835 1835 __________O___ -1 14.0000 143.500 2 7 311
1941212N10151 1941 39 WP MM NOT_NAMED 1941-08-03 12:00:00 NR 14.2342 143.216 main 1853 1853 __________P___ -1 14.2342 143.216 2 7 312
1941212N10151 1941 39 WP MM NOT_NAMED 1941-08-03 15:00:00 NR 14.4768 142.957 main 1879 1876 __________P___ -1 14.4768 142.957 2 7 315
1941212N10151 1941 39 WP MM NOT_NAMED 1941-08-03 18:00:00 NR 14.7311 142.694 main 1878 1853 __________P___ -1 14.7311 142.694 2 8 314
1941212N10151 1941 39 WP MM NOT_NAMED 1941-08-03 21:00:00 NR 15.0000 142.400 main 1853 1824 __________O___ -1 15.0000 142.400 2 8 311
1941212N10151 1941 39 WP MM NOT_NAMED 1941-08-04 00:00:00 NR 15.2816 142.036 main 1815 1787 __________P___ -1 15.2816 142.036 2 9 308
1941212N10151 1941 39 WP MM NOT_NAMED 1941-08-04 03:00:00 NR 15.5776 141.637 main 1779 1743 __________P___ -1 15.5776 141.637 2 10 308
1941212N10151 1941 39 WP MM NOT_NAMED 1941-08-04 06:00:00 NR 15.8847 141.220 main 1743 1709 __________P___ -1 15.8847 141.220 2 10 308
1941212N10151 1941 39 WP MM NOT_NAMED 1941-08-04 09:00:00 NR 16.2000 140.800 main 1709 1683 __________O___ -1 16.2000 140.800 2 10 309
1941212N10151 1941 39 WP MM NOT_NAMED 1941-08-04 12:00:00 NR 16.4926 140.439 main 1675 1650 __________P___ -1 16.4926 140.439 2 9 311
1941212N10151 1941 39 WP MM NOT_NAMED 1941-08-04 15:00:00 NR 16.7962 140.073 main 1653 1623 __________P___ -1 16.7962 140.073 2 10 311
1941212N10151 1941 39 WP MM NOT_NAMED 1941-08-04 18:00:00 NR 17.1267 139.670 main 1623 1587 __________P___ -1 17.1267 139.670 2 11 310
1941212N10151 1941 39 WP MM NOT_NAMED 1941-08-04 21:00:00 NR 17.5000 139.200 main 1587 1549 __________O___ -1 17.5000 139.200 2 12 308
1941212N10151 1941 39 WP MM NOT_NAMED 1941-08-05 00:00:00 NR 17.8789 138.648 main 1544 1509 __________P___ -1 17.8789 138.648 2 14 306
1941212N10151 1941 39 WP MM NOT_NAMED 1941-08-05 03:00:00 NR 18.3071 138.023 main 1504 1467 __________P___ -1 18.3071 138.023 2 16 307
1941212N10151 1941 39 WP MM NOT_NAMED 1941-08-05 06:00:00 NR 18.8066 137.337 main 1463 1424 __________P___ -1 18.8066 137.337 2 17 309
1941212N10151 1941 39 WP MM NOT_NAMED 1941-08-05 09:00:00 NR 19.4000 136.600 main 1424 1320 __________O___ -1 19.4000 136.600 2 20 312
1941212N10151 1941 39 WP MM NOT_NAMED 1941-08-05 12:00:00 NR 20.1402 135.788 main 1320 1206 __________P___ -1 20.1402 135.788 2 22 315
1941212N10151 1941 39 WP MM NOT_NAMED 1941-08-05 15:00:00 NR 20.9644 134.932 main 1192 1081 __________P___ -1 20.9644 134.932 2 23 316
1941212N10151 1941 39 WP MM NOT_NAMED 1941-08-05 18:00:00 NR 21.8061 134.085 main 1081 972 __________P___ -1 21.8061 134.085 2 22 317
1941212N10151 1941 39 WP MM NOT_NAMED 1941-08-05 21:00:00 NR 22.6000 133.300 main 972 893 __________O___ -1 22.6000 133.300 2 19 319
1941212N10151 1941 39 WP MM NOT_NAMED 1941-08-06 00:00:00 NR 23.2659 132.696 main 882 817 __________P___ -1 23.2659 132.696 2 17 321
1941212N10151 1941 39 WP MM NOT_NAMED 1941-08-06 03:00:00 NR 23.8772 132.158 main 806 742 __________P___ -1 23.8772 132.158 2 15 320
1941212N10151 1941 39 WP MM NOT_NAMED 1941-08-06 06:00:00 NR 24.4501 131.615 main 731 670 __________P___ -1 24.4501 131.615 2 15 317
1941212N10151 1941 39 WP MM NOT_NAMED 1941-08-06 09:00:00 NR 25.0000 131.000 main 670 604 __________O___ -1 25.0000 131.000 2 18 311
1941212N10151 1941 39 WP MM NOT_NAMED 1941-08-06 12:00:00 NR 25.6106 130.142 main 605 552 __________P___ -1 25.6106 130.142 2 20 306
1941212N10151 1941 39 WP MM NOT_NAMED 1941-08-06 15:00:00 NR 26.1896 129.211 main 555 533 __________P___ -1 26.1896 129.211 2 20 303
1941212N10151 1941 39 WP MM NOT_NAMED 1941-08-06 18:00:00 NR 26.6983 128.298 main 533 522 __________P___ -1 26.6983 128.298 2 18 301
1941212N10151 1941 39 WP MM NOT_NAMED 1941-08-06 21:00:00 NR 27.1000 127.500 main 527 522 __________O___ -1 27.1000 127.500 2 14 298
1941212N10151 1941 39 WP MM NOT_NAMED 1941-08-07 00:00:00 NR 27.3341 126.944 main 524 478 __________P___ -1 27.3341 126.944 2 10 293
1941212N10151 1941 39 WP MM NOT_NAMED 1941-08-07 03:00:00 NR 27.4708 126.516 main 478 447 __________P___ -1 27.4708 126.516 2 7 289
1941212N10151 1941 39 WP MM NOT_NAMED 1941-08-07 06:00:00 NR 27.5724 126.155 main 447 407 __________P___ -1 27.5724 126.155 2 7 290
1941212N10151 1941 39 WP MM NOT_NAMED 1941-08-07 09:00:00 NR 27.7000 125.800 main 407 362 __________O___ -1 27.7000 125.800 2 8 295
1941212N10151 1941 39 WP MM NOT_NAMED 1941-08-07 12:00:00 NR 27.9067 125.337 main 353 308 __________P___ -1 27.9067 125.337 2 9 299
1941212N10151 1941 39 WP MM NOT_NAMED 1941-08-07 15:00:00 NR 28.1528 124.869 main 303 250 __________P___ -1 28.1528 124.869 2 10 304
1941212N10151 1941 39 WP MM NOT_NAMED 1941-08-07 18:00:00 NR 28.4474 124.418 main 250 199 __________P___ -1 28.4474 124.418 2 10 310
1941212N10151 1941 39 WP MM NOT_NAMED 1941-08-07 21:00:00 NR 28.8000 124.000 main 199 155 __________O___ -1 28.8000 124.000 2 10 316
1941212N10151 1941 39 WP MM NOT_NAMED 1941-08-08 00:00:00 NR 29.2052 123.595 main 155 124 __________P___ -1 29.2052 123.595 2 11 322
1941212N10151 1941 39 WP MM NOT_NAMED 1941-08-08 03:00:00 NR 29.6674 123.231 main 125 101 __________P___ -1 29.6674 123.231 2 11 329
1941212N10151 1941 39 WP MM NOT_NAMED 1941-08-08 06:00:00 NR 30.1710 122.927 main 106 79 __________P___ -1 30.1710 122.927 2 11 336
1941212N10151 1941 39 WP MM NOT_NAMED 1941-08-08 09:00:00 NR 30.7000 122.700 main 79 66 __________O___ -1 30.7000 122.700 2 12 343
1941212N10151 1941 39 WP MM NOT_NAMED 1941-08-08 12:00:00 NR 31.2725 122.530 main 70 48 __________P___ -1 31.2725 122.530 2 12 349
1941212N10151 1941 39 WP MM NOT_NAMED 1941-08-08 15:00:00 NR 31.8592 122.442 main 52 52 __________P___ -1 31.8592 122.442 2 12 356
1941212N10151 1941 39 WP MM NOT_NAMED 1941-08-08 18:00:00 NR 32.4163 122.433 main 79 79 __________P___ -1 32.4163 122.433 2 10 3
1941212N10151 1941 39 WP MM NOT_NAMED 1941-08-08 21:00:00 NR 32.9000 122.500 main 116 116 __________O___ -1 32.9000 122.500 2 9 11
1941212N10151 1941 39 WP MM NOT_NAMED 1941-08-09 00:00:00 NR 33.2582 122.627 main 150 150 __________P___ -1 33.2582 122.627 2 7 23
1941212N10151 1941 39 WP MM NOT_NAMED 1941-08-09 03:00:00 NR 33.5402 122.824 main 179 179 __________P___ -1 33.5402 122.824 2 6 35
1941212N10151 1941 39 WP MM NOT_NAMED 1941-08-09 06:00:00 NR 33.7770 123.059 main 222 222 __________P___ -1 33.7770 123.059 2 6 41
1941212N10151 1941 39 WP MM NOT_NAMED 1941-08-09 09:00:00 NR 34.0000 123.300 main 250 250 __________O___ -1 34.0000 123.300 2 6 37
1941212N10151 1941 39 WP MM NOT_NAMED 1941-08-09 12:00:00 NR 34.2489 123.497 main 260 237 __________P___ -1 34.2489 123.497 2 6 34
1941212N10151 1941 39 WP MM NOT_NAMED 1941-08-09 15:00:00 NR 34.4923 123.693 main 237 213 __________P___ -1 34.4923 123.693 2 6 34
1941212N10151 1941 39 WP MM NOT_NAMED 1941-08-09 18:00:00 NR 34.7395 123.894 main 213 191 __________P___ -1 34.7395 123.894 2 6 33
1941212N10151 1941 39 WP MM NOT_NAMED 1941-08-09 21:00:00 NR 35.0000 124.100 main 191 172 __________O___ -1 35.0000 124.100 2 6 33
1941212N10151 1941 39 WP MM NOT_NAMED 1941-08-10 00:00:00 NR 35.2775 124.322 main 173 160 __________P___ -1 35.2775 124.322 2 7 33
1941212N10151 1941 39 WP MM NOT_NAMED 1941-08-10 03:00:00 NR 35.5700 124.550 main 155 145 __________P___ -1 35.5700 124.550 2 7 32
1941212N10151 1941 39 WP MM NOT_NAMED 1941-08-10 06:00:00 NR 35.8775 124.778 main 145 112 __________P___ -1 35.8775 124.778 2 7 30
1941212N10151 1941 39 WP MM NOT_NAMED 1941-08-10 09:00:00 NR 36.2000 125.000 main 112 83 __________O___ -1 36.2000 125.000 2 8 29
1941212N10151 1941 39 WP MM NOT_NAMED 1941-08-10 12:00:00 NR 36.5438 125.235 main 83 62 __________P___ -1 36.5438 125.235 2 8 28
1941212N10151 1941 39 WP MM NOT_NAMED 1941-08-10 15:00:00 NR 36.9001 125.459 main 57 57 __________P___ -1 36.9001 125.459 2 8 25
1941212N10151 1941 39 WP MM NOT_NAMED 1941-08-10 18:00:00 NR 37.2564 125.654 main 56 23 __________P___ -1 37.2564 125.654 2 8 21
1941212N10151 1941 39 WP MM NOT_NAMED 1941-08-10 21:00:00 NR 37.6000 125.800 main 23 0 __________O___ -1 37.6000 125.800 2 7 15
1941212N10151 1941 39 WP MM NOT_NAMED 1941-08-11 00:00:00 NR 37.9345 125.880 main 0 0 __________P___ -1 37.9345 125.880 2 7 8
1941212N10151 1941 39 WP MM NOT_NAMED 1941-08-11 03:00:00 NR 38.2522 125.911 main 0 0 __________P___ -1 38.2522 125.911 2 6 0
1941212N10151 1941 39 WP MM NOT_NAMED 1941-08-11 06:00:00 NR 38.5439 125.911 main 0 0 __________P___ -1 38.5439 125.911 2 5 358
1941212N10151 1941 39 WP MM NOT_NAMED 1941-08-11 09:00:00 NR 38.8000 125.900 main 0 0 __________O___ -1 38.8000 125.900 2 5 352
1941212N10151 1941 39 WP MM NOT_NAMED 1941-08-11 12:00:00 NR 39.0019 125.820 main 0 0 __________P___ -1 39.0019 125.820 2 4 342
1941212N10151 1941 39 WP MM NOT_NAMED 1941-08-11 15:00:00 NR 39.1709 125.746 main 0 0 __________P___ -1 39.1709 125.746 2 3 352
1941212N10151 1941 39 WP MM NOT_NAMED 1941-08-11 18:00:00 NR 39.3294 125.749 main 0 0 __________P___ -1 39.3294 125.749 2 4 20
1941212N10151 1941 39 WP MM NOT_NAMED 1941-08-11 21:00:00 NR 39.5000 125.900 main 0 0 __________O___ -1 39.5000 125.900 2 6 46
1941212N10151 1941 39 WP MM NOT_NAMED 1941-08-12 00:00:00 NR 39.7238 126.278 main 0 0 __________P___ -1 39.7238 126.278 2 8 57
1941212N10151 1941 39 WP MM NOT_NAMED 1941-08-12 03:00:00 NR 39.9588 126.810 main 0 0 __________P___ -1 39.9588 126.810 2 10 62
1941212N10151 1941 39 WP MM NOT_NAMED 1941-08-12 06:00:00 NR 40.1892 127.437 main 0 0 __________P___ -1 40.1892 127.437 2 11 66
1941212N10151 1941 39 WP MM NOT_NAMED 1941-08-12 09:00:00 NR 40.4000 128.100 main 0 0 __________O___ -1 40.4000 128.100 2 11 69
1941212N10151 1941 39 WP MM NOT_NAMED 1941-08-12 12:00:00 NR 40.5809 128.748 main 0 0 __________P___ -1 40.5809 128.748 2 10 71
1941212N10151 1941 39 WP MM NOT_NAMED 1941-08-12 15:00:00 NR 40.7361 129.375 main 11 0 __________P___ -1 40.7361 129.375 2 10 73
1941212N10151 1941 39 WP MM NOT_NAMED 1941-08-12 18:00:00 NR 40.8733 129.990 main 25 25 __________P___ -1 40.8733 129.990 2 10 74
1941212N10151 1941 39 WP MM NOT_NAMED 1941-08-12 21:00:00 NR 41.0000 130.600 main 75 __________O___ -1 41.0000 130.600 2 10 75

デジタル台風データ・検索

IBTrACS Databaseについて

本データベースは、米国NOAAが公開する1842年以降の世界の熱帯低気圧のベストトラックデータアーカイブInternational Best Track Archive for Climate Stewardship (IBTrACS)を、ウェブで閲覧しやすい形式に変換したものです。

最終更新日:2021-12-06